Time;durP1;ratioP1;P1;durP2;ratioP2;P2;SDS_P1;SDS_P2;PMS_P1;PMS_P2;Temp;Humidity;BMP_temperature;BMP_pressure;BME280_temperature;BME280_humidity;BME280_pressure;Samples;Min_cycle;Max_cycle;Signal;HPM_P1;HPM_P2
2023/01/18 00:01:24;;;;;;;5.80;3.13;;;5.10;99.90;;;2.79;100.00;97159.34;10454414;28;20062;-84
2023/01/18 00:06:27;;;;;;;13.87;5.67;;;5.20;99.90;;;2.83;100.00;97165.84;10457903;28;20072;-84
2023/01/18 00:11:31;;;;;;;12.60;6.00;;;5.20;99.90;;;2.86;100.00;97162.81;10410235;28;20068;-84
2023/01/18 00:16:34;;;;;;;10.97;5.57;;;5.30;99.90;;;2.88;100.00;97139.84;10472978;28;20116;-84
2023/01/18 00:21:39;;;;;;;9.57;4.13;;;5.30;99.90;;;2.89;100.00;97125.72;10425732;28;20077;-84
2023/01/18 00:26:42;;;;;;;9.50;4.50;;;5.30;99.90;;;2.88;100.00;97097.88;10473530;28;20168;-84
2023/01/18 00:31:45;;;;;;;6.70;3.20;;;5.30;99.90;;;2.89;100.00;97094.25;10471876;28;20534;-84
2023/01/18 00:36:48;;;;;;;4.67;3.17;;;5.30;99.90;;;2.86;100.00;97136.59;10437162;28;20529;-84
2023/01/18 00:47:13;;;;;;;5.03;2.80;;;5.20;99.90;;;2.81;100.00;97243.88;10425630;28;20068;-83
2023/01/18 00:52:16;;;;;;;4.27;2.47;;;5.20;99.90;;;2.80;100.00;97247.50;10477611;28;20061;-84
2023/01/18 00:57:19;;;;;;;4.17;2.30;;;5.20;99.90;;;2.79;100.00;97255.56;10483839;28;20084;-84
2023/01/18 01:02:23;;;;;;;5.50;2.80;;;5.10;99.90;;;2.80;100.00;97259.81;10454108;28;20067;-83
2023/01/18 01:07:25;;;;;;;5.90;2.90;;;5.10;99.90;;;2.83;100.00;97235.84;10464018;28;20096;-84
2023/01/18 01:28:44;;;;;;;3.47;2.07;;;5.20;99.90;;;2.84;100.00;97226.97;10463635;28;20430;-83
2023/01/18 01:33:47;;;;;;;4.07;1.90;;;5.20;99.90;;;2.77;100.00;97210.38;10449510;28;20103;-84
2023/01/18 01:38:51;;;;;;;4.90;1.83;;;5.20;99.90;;;2.67;100.00;97192.34;10445530;28;20144;-84
2023/01/18 01:44:01;;;;;;;2.30;1.17;;;5.10;99.90;;;2.62;100.00;97236.66;10430860;28;20534;-83
2023/01/18 01:49:15;;;;;;;2.23;1.20;;;5.00;99.90;;;2.57;100.00;97252.16;10430645;28;20057;-83
2023/01/18 01:54:44;;;;;;;4.13;2.00;;;4.90;99.90;;;2.54;100.00;97255.97;10482331;28;20064;-84
2023/01/18 01:59:56;;;;;;;3.83;2.43;;;4.90;99.90;;;2.55;100.00;97275.94;10460314;28;20057;-84
2023/01/18 02:05:01;;;;;;;3.10;1.70;;;4.90;99.90;;;2.53;100.00;97277.94;10438528;28;20430;-83
2023/01/18 02:10:06;;;;;;;5.20;2.60;;;4.90;99.90;;;2.48;100.00;97271.66;10441316;28;20119;-84
2023/01/18 02:15:10;;;;;;;5.63;2.40;;;4.90;99.90;;;2.41;100.00;97284.69;10476660;28;20515;-83
2023/01/18 02:20:46;;;;;;;4.10;1.93;;;4.80;99.90;;;2.40;100.00;97283.06;10445825;28;20065;-83
2023/01/18 02:26:34;;;;;;;4.10;1.90;;;4.80;99.90;;;2.36;100.00;97303.59;10455383;28;20057;-83
2023/01/18 02:32:07;;;;;;;6.03;2.97;;;4.70;99.90;;;2.35;100.00;97314.28;10445916;28;20064;-83
2023/01/18 02:37:12;;;;;;;4.63;2.33;;;4.70;99.90;;;2.36;100.00;97314.06;10422463;28;20057;-83
2023/01/18 02:47:45;;;;;;;3.17;1.67;;;4.70;99.90;;;2.30;100.00;97325.31;10455441;28;20090;-84
2023/01/18 02:52:50;;;;;;;2.70;1.60;;;4.70;99.90;;;2.29;100.00;97315.81;10462687;28;20089;-83
2023/01/18 02:58:02;;;;;;;5.03;1.90;;;4.70;99.90;;;2.30;100.00;97312.19;10425163;28;20422;-83
2023/01/18 03:03:09;;;;;;;5.85;2.47;;;4.70;99.90;;;2.33;100.00;97316.25;10483265;28;20119;-84
2023/01/18 03:08:35;;;;;;;4.20;2.00;;;4.70;99.90;;;2.32;100.00;97338.22;10398969;28;20555;-83
2023/01/18 03:13:52;;;;;;;4.53;1.93;;;4.70;99.90;;;2.30;100.00;97322.69;10464397;28;20073;-83
2023/01/18 03:24:39;;;;;;;3.63;2.43;;;4.70;99.90;;;2.26;100.00;97313.56;10414132;28;20502;-83
2023/01/18 03:35:15;;;;;;;6.43;2.97;;;4.60;99.90;;;2.29;100.00;97323.69;10458969;28;20065;-83
2023/01/18 03:40:24;;;;;;;4.35;2.42;;;4.60;99.90;;;2.26;100.00;97308.31;10455932;28;20064;-83
2023/01/18 03:45:41;;;;;;;4.93;2.10;;;4.60;99.90;;;2.25;100.00;97295.41;10428780;28;20058;-83
2023/01/18 03:50:59;;;;;;;4.90;2.10;;;4.60;99.90;;;2.23;100.00;97281.69;10470547;28;20058;-82
2023/01/18 03:56:34;;;;;;;4.70;2.77;;;4.60;99.90;;;2.21;100.00;97271.38;10458228;28;20491;-83
2023/01/18 04:01:37;;;;;;;4.10;2.10;;;4.60;99.90;;;2.25;100.00;97288.34;10461355;28;20144;-83
2023/01/18 04:06:41;;;;;;;5.47;2.53;;;4.60;99.90;;;2.28;100.00;97281.91;10434539;28;20404;-82
2023/01/18 04:11:44;;;;;;;4.97;2.87;;;4.60;99.90;;;2.30;100.00;97282.56;10489845;28;20065;-82
2023/01/18 04:16:47;;;;;;;5.83;2.80;;;4.70;99.90;;;2.34;100.00;97305.59;10427759;28;20054;-83
2023/01/18 04:21:49;;;;;;;6.83;3.40;;;4.70;99.90;;;2.36;100.00;97327.19;10500889;28;20091;-83
2023/01/18 04:26:52;;;;;;;6.77;3.47;;;4.80;99.90;;;2.37;100.00;97315.69;10457230;28;20502;-83
2023/01/18 04:31:56;;;;;;;25.60;11.63;;;4.80;99.90;;;2.34;100.00;97294.28;10485119;28;20088;-84
2023/01/18 04:36:59;;;;;;;9.67;5.10;;;4.70;99.90;;;2.36;100.00;97298.34;10491664;28;20064;-84
2023/01/18 04:42:02;;;;;;;12.10;5.90;;;4.70;99.90;;;2.39;100.00;97315.50;10446052;28;20061;-83
2023/01/18 04:47:05;;;;;;;10.60;5.10;;;4.80;99.90;;;2.39;100.00;97318.94;10438795;28;20061;-83
2023/01/18 04:52:08;;;;;;;10.40;5.97;;;4.80;99.90;;;2.40;100.00;97335.50;10481169;28;20413;-83
2023/01/18 04:57:11;;;;;;;7.10;3.97;;;4.80;99.90;;;2.41;100.00;97340.53;10470176;28;20057;-84
2023/01/18 05:02:14;;;;;;;9.87;4.00;;;4.80;99.90;;;2.45;100.00;97324.44;10464312;28;20064;-85
2023/01/18 05:07:18;;;;;;;10.03;4.83;;;4.80;99.90;;;2.47;100.00;97330.31;10443530;28;20144;-84
2023/01/18 05:12:21;;;;;;;10.80;4.40;;;4.80;99.90;;;2.49;100.00;97346.66;10414205;28;20054;-84
2023/01/18 05:17:26;;;;;;;16.00;6.47;;;4.80;99.90;;;2.49;100.00;97365.00;10467683;28;20053;-86
2023/01/18 05:22:31;;;;;;;9.47;4.60;;;4.90;99.90;;;2.49;100.00;97397.28;10421948;28;20144;-87
2023/01/18 05:27:34;;;;;;;12.17;6.00;;;4.90;99.90;;;2.48;100.00;97415.81;10480474;28;20065;-86
2023/01/18 05:32:37;;;;;;;12.90;6.27;;;4.80;99.90;;;2.47;100.00;97415.00;10483805;28;20551;-85
2023/01/18 05:37:41;;;;;;;11.50;5.33;;;4.80;99.90;;;2.48;100.00;97413.19;10427897;28;20053;-86
2023/01/18 05:42:44;;;;;;;10.87;4.73;;;4.80;99.90;;;2.49;100.00;97406.94;10428777;28;20152;-92
2023/01/18 05:47:47;;;;;;;15.37;6.07;;;4.90;99.90;;;2.50;100.00;97416.44;10430868;28;20057;-91
2023/01/18 05:52:50;;;;;;;3.77;2.33;;;4.80;99.90;;;2.46;100.00;97399.44;10449925;28;20054;-91
2023/01/18 05:57:53;;;;;;;3.53;1.93;;;4.80;99.90;;;2.47;100.00;97398.47;10447552;28;20062;-91
2023/01/18 06:02:56;;;;;;;2.07;1.30;;;4.80;99.90;;;2.42;100.00;97373.63;10495586;28;20220;-87
2023/01/18 06:07:59;;;;;;;3.60;1.20;;;4.70;99.90;;;2.39;100.00;97381.03;10457393;28;20511;-88
2023/01/18 06:13:02;;;;;;;3.77;1.53;;;4.70;99.90;;;2.28;100.00;97377.09;10466119;28;20066;-87
2023/01/18 06:18:06;;;;;;;2.27;1.00;;;4.60;99.90;;;2.20;100.00;97348.34;10429040;28;20572;-86
2023/01/18 06:23:09;;;;;;;1.60;1.00;;;4.50;99.90;;;2.11;100.00;97365.19;10479451;28;20061;-86
2023/01/18 06:28:12;;;;;;;2.47;1.10;;;4.50;99.90;;;2.03;100.00;97386.22;10452754;28;20065;-86
2023/01/18 06:33:16;;;;;;;2.50;1.13;;;4.30;99.90;;;1.93;100.00;97390.97;10444254;28;20057;-87
2023/01/18 06:38:19;;;;;;;2.23;1.10;;;4.30;99.90;;;1.85;100.00;97384.78;10457635;28;20057;-87
2023/01/18 06:43:22;;;;;;;3.63;2.47;;;4.20;99.90;;;1.86;100.00;97375.97;10445452;28;20061;-88
2023/01/18 06:48:26;;;;;;;8.53;2.60;;;4.20;99.90;;;1.89;100.00;97359.06;10425303;28;20108;-87
2023/01/18 06:53:29;;;;;;;7.93;2.73;;;4.20;99.90;;;1.85;100.00;97342.91;10444813;28;20152;-87
2023/01/18 06:58:33;;;;;;;6.93;2.90;;;4.20;99.90;;;1.87;100.00;97408.19;10443194;28;20400;-87
2023/01/18 07:03:37;;;;;;;3.20;1.67;;;4.20;99.90;;;1.83;100.00;97426.06;10428494;28;20519;-86
2023/01/18 07:08:40;;;;;;;3.00;1.53;;;4.20;99.90;;;1.78;100.00;97436.25;10427231;28;20080;-87
2023/01/18 07:13:45;;;;;;;3.80;1.47;;;4.10;99.90;;;1.74;100.00;97466.44;10443315;28;20068;-87
2023/01/18 07:18:48;;;;;;;5.90;1.47;;;4.10;99.90;;;1.66;100.00;97453.41;10446990;28;20061;-87
2023/01/18 07:23:51;;;;;;;13.93;5.00;;;4.00;99.90;;;1.55;100.00;97462.50;10447696;28;20103;-87
2023/01/18 07:28:55;;;;;;;8.20;4.17;;;3.90;99.90;;;1.49;100.00;97478.09;10425503;28;20061;-86
2023/01/18 07:33:57;;;;;;;8.37;3.77;;;3.80;99.90;;;1.47;100.00;97516.72;10449942;28;20080;-87
2023/01/18 07:39:02;;;;;;;6.20;3.40;;;3.80;99.90;;;1.46;100.00;97529.00;10428146;28;20069;-86
2023/01/18 07:44:05;;;;;;;9.57;4.17;;;3.80;99.90;;;1.56;100.00;97528.75;10432906;28;20152;-86
2023/01/18 07:49:08;;;;;;;7.80;3.87;;;3.90;99.90;;;1.57;100.00;97525.16;10421674;28;20495;-86
2023/01/18 07:54:11;;;;;;;6.37;2.80;;;3.90;99.90;;;1.65;100.00;97537.34;10423064;28;20077;-86
2023/01/18 07:59:14;;;;;;;6.33;3.17;;;4.00;99.90;;;1.69;100.00;97570.06;10454606;28;20057;-86
2023/01/18 08:04:17;;;;;;;6.27;3.30;;;4.00;99.90;;;1.75;100.00;97582.44;10425967;28;20054;-85
2023/01/18 08:09:20;;;;;;;5.00;2.30;;;4.10;99.90;;;1.80;100.00;97586.16;10428967;28;20058;-86
2023/01/18 08:14:23;;;;;;;4.10;2.10;;;4.20;99.90;;;1.88;100.00;97598.38;10478552;28;20411;-85
2023/01/18 08:19:26;;;;;;;4.47;2.13;;;4.30;99.90;;;1.95;100.00;97637.75;10482124;28;20148;-83
2023/01/18 08:24:30;;;;;;;5.53;2.33;;;4.30;99.90;;;1.93;100.00;97637.13;10408614;28;20066;-83
2023/01/18 08:29:32;;;;;;;5.73;2.33;;;4.30;99.90;;;1.95;100.00;97649.06;10469438;28;20066;-82
2023/01/18 08:34:36;;;;;;;4.97;2.53;;;4.30;99.90;;;1.99;100.00;97646.91;10496917;28;20093;-83
2023/01/18 08:39:39;;;;;;;4.77;3.03;;;4.30;99.90;;;2.18;100.00;97662.13;10455755;28;20140;-83
2023/01/18 08:44:42;;;;;;;3.80;2.60;;;4.40;99.90;;;2.27;100.00;97661.06;10461002;28;20551;-82
2023/01/18 08:49:45;;;;;;;4.07;2.40;;;4.60;99.90;;;2.38;100.00;97668.50;10404633;28;20062;-82
2023/01/18 08:54:48;;;;;;;3.63;2.33;;;4.60;99.90;;;2.44;100.00;97664.34;10441735;28;20503;-82
2023/01/18 08:59:53;;;;;;;5.67;2.33;;;4.70;99.90;;;2.48;100.00;97699.72;10475855;28;20058;-82
2023/01/18 09:04:57;;;;;;;4.93;2.80;;;4.80;99.90;;;2.51;100.00;97714.25;10498643;28;20058;-82
2023/01/18 09:09:59;;;;;;;3.77;2.20;;;4.80;99.90;;;2.57;100.00;97724.84;10464479;28;20069;-81
2023/01/18 09:15:03;;;;;;;3.93;2.13;;;4.90;99.90;;;2.56;100.00;97744.19;10406603;28;20061;-81
2023/01/18 09:20:08;;;;;;;5.23;2.57;;;4.90;99.90;;;2.54;100.00;97755.88;10471704;28;20056;-81
2023/01/18 09:25:12;;;;;;;7.10;3.90;;;4.90;99.90;;;2.49;100.00;97774.75;10423997;28;20064;-81
2023/01/18 09:30:15;;;;;;;10.40;3.53;;;4.90;99.90;;;2.50;100.00;97802.59;10497232;28;20065;-81
2023/01/18 09:35:18;;;;;;;9.63;3.40;;;4.80;99.90;;;2.55;100.00;97836.16;10497437;28;20068;-81
2023/01/18 09:40:35;;;;;;;5.77;3.37;;;4.90;99.90;;;2.58;100.00;97830.53;10479064;28;20413;-81
2023/01/18 09:45:43;;;;;;;5.73;2.77;;;4.90;99.90;;;2.63;100.00;97841.31;10407269;28;20145;-82
2023/01/18 09:50:46;;;;;;;5.80;3.13;;;5.00;99.90;;;2.67;100.00;97846.06;10438046;28;20112;-81
2023/01/18 09:56:17;;;;;;;5.83;3.10;;;5.00;99.90;;;2.74;100.00;97866.34;10460414;28;20060;-81
2023/01/18 10:01:31;;;;;;;4.40;2.60;;;5.10;99.90;;;2.79;100.00;97872.69;10462610;28;20066;-81
2023/01/18 10:07:06;;;;;;;5.40;3.00;;;5.10;99.90;;;2.83;100.00;97870.53;10430158;28;20431;-81
2023/01/18 10:12:39;;;;;;;7.57;3.60;;;5.10;99.90;;;2.92;100.00;97869.47;10445634;28;20063;-81
2023/01/18 10:17:45;;;;;;;5.40;2.97;;;5.20;99.90;;;3.04;100.00;97875.94;10446036;28;20061;-81
2023/01/18 10:23:00;;;;;;;7.73;3.57;;;5.30;99.90;;;3.18;100.00;97908.47;10466883;28;20115;-81
2023/01/18 10:28:52;;;;;;;5.30;2.80;;;5.50;99.90;;;3.38;100.00;97927.97;10440496;28;20058;-81
2023/01/18 10:33:58;;;;;;;6.30;3.60;;;5.60;99.90;;;3.54;100.00;97944.56;10495975;28;20505;-80
2023/01/18 10:39:26;;;;;;;5.10;3.03;;;5.90;99.90;;;3.77;100.00;97934.81;10459133;28;20426;-81
2023/01/18 10:44:30;;;;;;;4.97;2.63;;;6.10;99.90;;;4.06;100.00;97933.22;10415035;28;20073;-81
2023/01/18 10:49:42;;;;;;;6.57;3.00;;;6.40;99.90;;;4.30;100.00;97938.19;10408868;28;20068;-81
2023/01/18 10:54:50;;;;;;;;;;;6.60;99.90;;;4.58;100.00;97954.13;10452972;28;20053;-80
2023/01/18 10:59:55;;;;;;;3.57;1.90;;;6.90;99.90;;;5.15;100.00;97965.66;10445443;28;19933;-80
2023/01/18 11:05:22;;;;;;;7.40;4.33;;;7.70;99.90;;;5.96;100.00;97968.78;10478786;28;20071;-80
2023/01/18 11:10:26;;;;;;;3.57;2.17;;;8.50;99.90;;;6.12;100.00;97979.88;10428588;28;20061;-81
2023/01/18 11:15:30;;;;;;;2.60;1.70;;;8.80;99.90;;;6.29;100.00;97987.44;10459763;28;20057;-79
2023/01/18 11:20:48;;;;;;;2.63;2.03;;;8.90;99.90;;;6.27;99.18;97994.75;10485813;28;20063;-80
2023/01/18 11:26:04;;;;;;;4.70;2.57;;;8.80;99.90;;;6.29;98.96;97992.72;10483150;28;20148;-79
2023/01/18 11:31:20;;;;;;;17.33;7.00;;;8.70;99.90;;;6.25;98.18;98020.50;10459575;28;20058;-80
2023/01/18 11:36:40;;;;;;;44.63;14.43;;;8.60;99.90;;;5.93;96.23;98011.34;10477857;28;20124;-80
2023/01/18 11:41:43;;;;;;;24.13;9.30;;;8.20;99.90;;;5.67;95.82;98019.84;10506570;28;20069;-80
2023/01/18 11:46:54;;;;;;;38.50;16.80;;;7.90;99.90;;;5.38;95.89;98040.84;10493294;28;20439;-80
2023/01/18 11:52:01;;;;;;;4.90;3.17;;;7.60;99.90;;;5.14;95.67;98056.97;10459874;28;20148;-80
2023/01/18 11:57:06;;;;;;;6.17;3.90;;;7.40;99.90;;;4.98;95.50;98065.94;10474931;28;20459;-80
2023/01/18 12:02:54;;;;;;;5.67;2.97;;;7.30;99.90;;;4.93;95.50;98078.00;10443185;28;20058;-80
2023/01/18 12:08:37;;;;;;;4.97;2.27;;;7.20;99.90;;;4.85;94.65;98089.44;10440978;28;20058;-80
2023/01/18 12:14:24;;;;;;;8.43;4.00;;;7.10;99.90;;;4.84;94.02;98103.59;10443334;28;20037;-79
2023/01/18 12:19:57;;;;;;;51.37;13.10;;;7.10;99.90;;;4.87;94.34;98112.94;10441735;28;20064;-79
2023/01/18 12:25:18;;;;;;;7.93;3.20;;;7.20;99.90;;;4.90;93.68;98128.38;10444720;28;20057;-80
2023/01/18 12:30:48;;;;;;;5.87;3.13;;;7.20;99.90;;;4.90;92.71;98136.25;10411558;28;20085;-80
2023/01/18 12:36:23;;;;;;;4.97;2.33;;;7.20;99.90;;;4.88;92.56;98157.50;10499486;28;20143;-79
2023/01/18 12:41:31;;;;;;;5.83;3.30;;;7.20;99.90;;;4.88;91.64;98162.75;10469534;28;20066;-79
2023/01/18 12:46:56;;;;;;;4.47;2.43;;;7.20;99.90;;;4.93;91.66;98160.41;10458214;28;20564;-79
2023/01/18 12:52:02;;;;;;;6.50;2.30;;;7.20;99.90;;;4.94;91.29;98161.22;10484406;28;20065;-79
2023/01/18 12:57:22;;;;;;;3.30;2.10;;;7.20;99.90;;;4.91;90.75;98180.00;10476767;28;20538;-79
2023/01/18 13:02:43;;;;;;;5.30;1.73;;;7.20;99.90;;;4.91;91.41;98180.00;10449107;28;20058;-79
2023/01/18 13:08:09;;;;;;;4.10;2.70;;;7.20;99.90;;;4.93;90.57;98192.00;10498000;28;20092;-79
2023/01/18 13:13:28;;;;;;;4.63;2.30;;;7.20;99.90;;;4.96;89.68;98191.63;10450154;28;20053;-79
2023/01/18 13:19:02;;;;;;;5.37;2.73;;;7.30;99.90;;;4.93;90.37;98213.06;10481586;28;20061;-79
2023/01/18 13:24:33;;;;;;;4.00;1.80;;;7.30;99.90;;;4.94;90.43;98235.75;10431637;28;20080;-79
2023/01/18 13:29:36;;;;;;;83.27;27.13;;;7.30;99.90;;;4.96;90.85;98232.91;10446893;28;20062;-79
2023/01/18 13:34:40;;;;;;;67.20;19.53;;;7.30;99.90;;;4.97;91.05;98248.53;10465831;28;20499;-79
2023/01/18 13:39:51;;;;;;;21.20;7.47;;;7.30;99.90;;;4.95;91.66;98268.97;10449950;28;20069;-79
2023/01/18 13:45:28;;;;;;;11.73;6.27;;;7.30;99.90;;;4.93;93.26;98263.06;10429437;28;20343;-79
2023/01/18 13:50:34;;;;;;;98.37;28.03;;;7.30;99.90;;;4.97;93.99;98282.75;10468221;28;20518;-79
2023/01/18 13:55:58;;;;;;;70.80;22.27;;;7.40;99.90;;;5.03;94.54;98289.09;10479336;28;20057;-79
2023/01/18 14:01:05;;;;;;;13.17;5.27;;;7.40;99.90;;;5.02;95.96;98272.50;10435974;28;20153;-79
2023/01/18 14:06:29;;;;;;;10.23;4.40;;;7.40;99.90;;;5.03;96.96;98278.59;10446154;28;20533;-79
2023/01/18 14:11:44;;;;;;;7.27;4.00;;;7.40;99.90;;;5.01;97.84;98283.22;10463914;28;20065;-79
2023/01/18 14:16:56;;;;;;;7.00;3.80;;;7.40;99.90;;;5.01;98.72;98297.19;10468667;28;20061;-79
2023/01/18 14:22:20;;;;;;;9.20;5.50;;;7.40;99.90;;;5.01;99.78;98313.00;10460984;28;20107;-79
2023/01/18 14:27:31;;;;;;;8.07;4.17;;;7.40;99.90;;;5.00;100.00;98313.19;10475711;28;20080;-80
2023/01/18 14:32:42;;;;;;;15.43;6.97;;;7.40;99.90;;;4.98;100.00;98337.06;10476028;28;20057;-79
2023/01/18 14:37:47;;;;;;;24.80;11.43;;;7.40;99.90;;;4.94;100.00;98332.31;10462686;28;20076;-79
2023/01/18 14:43:04;;;;;;;22.57;10.60;;;7.30;99.90;;;4.92;100.00;98337.75;10476942;28;20077;-79
2023/01/18 14:48:16;;;;;;;54.10;16.67;;;7.30;99.90;;;4.88;100.00;98356.72;10447764;28;20062;-79
2023/01/18 14:53:41;;;;;;;37.65;14.65;;;7.30;99.90;;;4.82;100.00;98358.22;10462024;28;20054;-79
2023/01/18 14:58:55;;;;;;;21.30;9.83;;;7.20;99.90;;;4.72;100.00;98362.91;10470204;28;20065;-79
2023/01/18 15:04:03;;;;;;;47.90;14.93;;;7.10;99.90;;;4.61;100.00;98368.56;10445203;28;20427;-79
2023/01/18 15:09:08;;;;;;;34.83;13.47;;;7.00;99.90;;;4.47;100.00;98370.94;10441803;28;20489;-79
2023/01/18 15:14:20;;;;;;;27.43;10.80;;;6.90;99.90;;;4.30;100.00;98351.00;10458526;28;20474;-79
2023/01/18 15:19:42;;;;;;;27.37;11.17;;;6.70;99.90;;;4.14;100.00;98349.28;10459161;28;20058;-79
2023/01/18 15:24:46;;;;;;;22.40;11.50;;;6.50;99.90;;;3.96;100.00;98351.34;10441757;28;20104;-78
2023/01/18 15:29:55;;;;;;;25.40;12.10;;;6.40;99.90;;;3.77;100.00;98339.41;10458883;28;20060;-79
2023/01/18 15:35:00;;;;;;;21.27;10.60;;;6.10;99.90;;;3.63;100.00;98340.94;10447472;28;20057;-79
2023/01/18 15:40:27;;;;;;;23.37;13.00;;;6.00;99.90;;;3.48;100.00;98356.56;10471122;28;20057;-79
2023/01/18 15:45:46;;;;;;;29.60;14.77;;;5.80;99.90;;;3.39;100.00;98349.69;10427713;28;20414;-79
2023/01/18 15:50:54;;;;;;;52.27;22.07;;;5.80;99.90;;;3.30;100.00;98376.97;10419518;28;20065;-79
2023/01/18 15:56:02;;;;;;;62.67;28.00;;;5.60;99.90;;;3.20;100.00;98394.69;10458031;28;20090;-79
2023/01/18 16:01:19;;;;;;;80.37;31.77;;;5.60;99.90;;;3.13;100.00;98433.88;10421795;28;20068;-79
2023/01/18 16:06:22;;;;;;;40.97;21.83;;;5.50;99.90;;;3.10;100.00;98423.69;10443998;28;20061;-79
2023/01/18 16:11:53;;;;;;;38.33;19.93;;;5.50;99.90;;;3.08;100.00;98424.88;10460430;28;20089;-79
2023/01/18 16:17:18;;;;;;;43.10;22.67;;;5.40;99.90;;;3.07;100.00;98429.28;10459109;28;20104;-79
2023/01/18 16:22:37;;;;;;;28.00;16.13;;;5.50;99.90;;;3.08;100.00;98432.72;10437169;28;20061;-80
2023/01/18 16:27:50;;;;;;;32.93;16.47;;;5.50;99.90;;;3.06;100.00;98443.41;10486927;28;20077;-80
2023/01/18 16:32:53;;;;;;;37.57;16.13;;;5.50;99.90;;;3.07;100.00;98445.03;10477847;28;20455;-79
2023/01/18 16:37:56;;;;;;;35.50;16.33;;;5.40;99.90;;;3.08;100.00;98440.59;10453526;28;20061;-79
2023/01/18 16:43:19;;;;;;;33.77;16.70;;;5.50;99.90;;;3.09;100.00;98434.38;10457763;28;20088;-79
2023/01/18 16:48:26;;;;;;;40.07;18.57;;;5.50;99.90;;;3.13;100.00;98435.69;10482610;28;20116;-79
2023/01/18 16:53:29;;;;;;;24.10;12.63;;;5.50;99.90;;;3.16;100.00;98427.47;10450410;28;20108;-79
2023/01/18 16:58:34;;;;;;;25.30;11.30;;;5.50;99.90;;;3.17;100.00;98444.88;10442252;28;20072;-79
2023/01/18 17:03:38;;;;;;;37.73;17.13;;;5.50;99.90;;;3.15;100.00;98452.09;10491053;28;20495;-79
2023/01/18 17:08:42;;;;;;;30.90;16.87;;;5.50;99.90;;;3.14;100.00;98458.31;10490585;28;20550;-79
2023/01/18 17:13:46;;;;;;;31.60;15.97;;;5.50;99.90;;;3.15;100.00;98470.47;10450374;28;20057;-79
2023/01/18 17:18:49;;;;;;;25.90;13.50;;;5.50;99.90;;;3.17;100.00;98463.22;10439403;28;20065;-79
2023/01/18 17:23:55;;;;;;;26.93;14.07;;;5.50;99.90;;;3.17;100.00;98476.38;10488517;28;20506;-79
2023/01/18 17:28:58;;;;;;;28.10;13.90;;;5.50;99.90;;;3.16;100.00;98482.59;10429169;28;20065;-80
2023/01/18 17:34:01;;;;;;;27.23;14.40;;;5.50;99.90;;;3.16;100.00;98483.41;10478232;28;20061;-80
2023/01/18 17:39:04;;;;;;;31.77;16.47;;;5.60;99.90;;;3.21;100.00;98524.94;10486069;28;20068;-80
2023/01/18 17:44:08;;;;;;;20.60;10.27;;;5.60;99.90;;;3.25;100.00;98518.38;10419717;28;20442;-80
2023/01/18 17:49:11;;;;;;;31.37;15.37;;;5.70;99.90;;;3.28;100.00;98530.34;10472075;28;20106;-80
2023/01/18 17:54:15;;;;;;;29.50;17.03;;;5.60;99.90;;;3.34;100.00;98524.47;10479635;28;20096;-80
2023/01/18 17:59:23;;;;;;;37.07;17.63;;;5.70;99.90;;;3.37;100.00;98550.41;10481233;28;20057;-80
2023/01/18 18:04:28;;;;;;;45.93;25.13;;;5.80;99.90;;;3.37;100.00;98553.03;10471810;28;20076;-81
2023/01/18 18:09:36;;;;;;;49.87;21.43;;;5.80;99.90;;;3.39;100.00;98551.88;10440789;28;20081;-81
2023/01/18 18:14:40;;;;;;;32.37;18.40;;;5.80;99.90;;;3.39;100.00;98543.16;10479598;28;20124;-80
2023/01/18 18:19:42;;;;;;;29.57;16.77;;;5.80;99.90;;;3.40;100.00;98543.00;10478154;28;20057;-81
2023/01/18 18:24:47;;;;;;;29.60;13.87;;;5.80;99.90;;;3.44;100.00;98556.66;10420459;28;20058;-81
2023/01/18 18:29:50;;;;;;;34.50;17.50;;;5.80;99.90;;;3.44;100.00;98554.03;10452531;28;20061;-81
2023/01/18 18:34:54;;;;;;;44.30;20.63;;;5.90;99.90;;;3.43;100.00;98550.56;10425729;28;20457;-80
2023/01/18 18:39:57;;;;;;;30.13;16.07;;;5.80;99.90;;;3.42;100.00;98538.44;10473081;28;20057;-81
2023/01/18 18:45:00;;;;;;;44.37;21.73;;;5.90;99.90;;;3.48;100.00;98537.78;10420445;28;20072;-81
2023/01/18 18:50:04;;;;;;;70.90;28.67;;;5.90;99.90;;;3.48;100.00;98552.72;10455799;28;20069;-81
2023/01/18 18:55:08;;;;;;;76.93;31.77;;;5.90;99.90;;;3.49;100.00;98544.66;10464262;28;20065;-81
2023/01/18 19:00:13;;;;;;;66.20;32.00;;;5.90;99.90;;;3.46;100.00;98544.16;10471468;28;20803;-81
2023/01/18 19:05:16;;;;;;;63.93;31.17;;;5.90;99.90;;;3.46;100.00;98539.72;10432354;28;20072;-81
2023/01/18 19:10:26;;;;;;;56.77;27.80;;;5.80;99.90;;;3.43;100.00;98545.31;10426683;28;20058;-81
2023/01/18 19:15:29;;;;;;;55.90;26.40;;;5.80;99.90;;;3.40;100.00;98547.44;10463608;28;20064;-80
2023/01/18 19:20:32;;;;;;;47.73;24.23;;;5.70;99.90;;;3.38;100.00;98558.09;10462762;28;20481;-80
2023/01/18 19:25:39;;;;;;;55.50;26.70;;;5.70;99.90;;;3.36;100.00;98554.84;10439117;28;20095;-81
2023/01/18 19:30:43;;;;;;;37.93;20.07;;;5.70;99.90;;;3.32;100.00;98548.25;10436456;28;20088;-82
2023/01/18 19:35:46;;;;;;;40.50;21.97;;;5.70;99.90;;;3.36;100.00;98541.72;10454068;28;20062;-81
2023/01/18 19:40:49;;;;;;;34.53;17.20;;;5.70;99.90;;;3.37;100.00;98545.16;10452817;28;20063;-82
2023/01/18 19:45:53;;;;;;;34.10;17.77;;;5.70;99.90;;;3.37;100.00;98547.78;10431314;28;20093;-80
2023/01/18 19:51:06;;;;;;;33.93;18.17;;;5.70;99.90;;;3.37;100.00;98553.03;10441407;28;20064;-81
2023/01/18 19:56:24;;;;;;;36.20;19.50;;;5.70;99.90;;;3.39;100.00;98569.44;10475716;28;20097;-82
2023/01/18 20:01:27;;;;;;;36.03;19.80;;;5.70;99.90;;;3.39;100.00;98553.69;10471062;28;20057;-82
2023/01/18 20:06:41;;;;;;;31.38;14.85;;;5.80;99.90;;;3.42;100.00;98559.44;10416751;28;20141;-82
2023/01/18 20:11:44;;;;;;;29.37;15.30;;;5.80;99.90;;;3.45;100.00;98558.28;10405894;28;20426;-82
2023/01/18 20:16:47;;;;;;;37.27;16.03;;;5.80;99.90;;;3.46;100.00;98568.63;10468240;28;20145;-82
2023/01/18 20:21:50;;;;;;;30.80;14.53;;;5.80;99.90;;;3.44;100.00;98564.53;10417982;28;20057;-82
2023/01/18 20:26:53;;;;;;;25.97;13.30;;;5.80;99.90;;;3.45;100.00;98569.59;10482610;28;20057;-82
2023/01/18 20:31:59;;;;;;;27.50;15.00;;;5.80;99.90;;;3.48;100.00;98569.28;10417986;28;20053;-82
2023/01/18 20:37:17;;;;;;;20.60;11.97;;;5.80;99.90;;;3.49;100.00;98576.19;10455951;28;20061;-81
2023/01/18 20:42:20;;;;;;;24.80;13.10;;;5.80;99.90;;;3.49;100.00;98565.69;10466408;28;20064;-82
2023/01/18 20:47:23;;;;;;;25.50;12.93;;;5.90;99.90;;;3.48;100.00;98566.66;10460254;28;20058;-94
2023/01/18 20:52:26;;;;;;;29.77;14.50;;;5.80;99.90;;;3.44;100.00;98564.53;10431782;28;20061;-96
2023/01/18 20:57:30;;;;;;;25.63;12.30;;;5.80;99.90;;;3.45;100.00;98574.84;10444838;28;20061;-94
2023/01/18 21:02:34;;;;;;;27.77;14.30;;;5.80;99.90;;;3.47;100.00;98579.94;10469989;28;20538;-93
2023/01/18 21:07:37;;;;;;;24.17;11.53;;;5.80;99.90;;;3.47;100.00;98577.31;10468577;28;20396;-95
2023/01/18 21:12:43;;;;;;;24.87;13.07;;;5.80;99.90;;;3.49;100.00;98580.63;10454507;28;20057;-93
2023/01/18 21:17:46;;;;;;;27.83;13.17;;;5.80;99.90;;;3.45;100.00;98564.34;10456236;28;20530;-95
2023/01/18 21:22:49;;;;;;;31.13;16.17;;;5.80;99.90;;;3.48;100.00;98548.28;10463824;28;20087;-94
2023/01/18 21:27:53;;;;;;;25.53;13.63;;;5.80;99.90;;;3.43;100.00;98540.06;10463345;28;20057;-83
2023/01/18 21:32:55;;;;;;;21.23;11.50;;;5.80;99.90;;;3.41;100.00;98531.50;10458555;28;20108;-84
2023/01/18 21:38:01;;;;;;;16.30;9.57;;;5.70;99.90;;;3.35;100.00;98521.66;10445961;28;20093;-83
2023/01/18 21:48:29;;;;;;;30.83;13.38;;;5.70;99.90;;;3.37;100.00;98527.59;10425473;28;20491;-83
2023/01/18 21:58:53;;;;;;;13.90;7.77;;;5.70;99.90;;;3.34;100.00;98524.47;10450104;28;20400;-83
2023/01/18 22:09:18;;;;;;;29.30;12.07;;;5.60;99.90;;;3.31;100.00;98549.25;10450134;28;20115;-82
2023/01/18 22:14:21;;;;;;;20.87;11.10;;;5.60;99.90;;;3.30;100.00;98555.47;10442861;28;20064;-83
2023/01/18 22:19:24;;;;;;;20.67;10.53;;;5.60;99.90;;;3.34;100.00;98556.78;10419690;28;20429;-83
2023/01/18 22:24:27;;;;;;;19.00;9.17;;;5.60;99.90;;;3.35;100.00;98582.06;10454990;28;20061;-83